createdAt,value
2023-04-17T00:01:55.734Z,10.28
2023-04-17T00:04:23.473Z,10.26
2023-04-17T00:06:53.940Z,10.30
2023-04-17T00:09:21.395Z,10.21
2023-04-17T00:11:48.890Z,10.12
2023-04-17T00:14:16.383Z,10.15
2023-04-17T00:16:43.894Z,10.22
2023-04-17T00:19:11.938Z,10.18
2023-04-17T00:21:39.606Z,9.95
2023-04-17T00:24:07.351Z,9.88
2023-04-17T00:26:34.836Z,9.67
2023-04-17T00:29:02.828Z,9.95
2023-04-17T00:31:31.466Z,10.19
2023-04-17T00:34:01.366Z,10.16
2023-04-17T00:36:31.828Z,10.11
2023-04-17T00:38:59.349Z,10.16
2023-04-17T00:41:26.905Z,9.87
2023-04-17T00:43:54.360Z,10.00
2023-04-17T00:46:22.135Z,10.14
2023-04-17T00:48:49.738Z,10.14
2023-04-17T00:51:17.308Z,10.04
2023-04-17T00:53:45.850Z,9.88
2023-04-17T00:56:13.681Z,9.82
2023-04-17T00:58:41.371Z,9.95
2023-04-17T01:01:08.811Z,9.75
2023-04-17T01:03:36.559Z,9.57
2023-04-17T01:06:04.202Z,9.64
2023-04-17T01:08:42.151Z,9.58
2023-04-17T01:11:10.816Z,9.71
2023-04-17T01:13:48.729Z,9.64
2023-04-17T01:16:18.142Z,9.84
2023-04-17T01:18:48.343Z,9.68
2023-04-17T01:21:16.092Z,9.78
2023-04-17T01:23:50.000Z,9.48
2023-04-17T01:26:18.876Z,9.49
2023-04-17T01:28:57.798Z,9.71
2023-04-17T01:31:27.112Z,9.70
2023-04-17T01:33:55.449Z,9.83
2023-04-17T01:36:22.903Z,9.85
2023-04-17T01:38:50.337Z,9.78
2023-04-17T01:41:17.929Z,9.87
2023-04-17T01:43:47.473Z,9.76
2023-04-17T01:46:15.107Z,9.59
2023-04-17T01:48:42.650Z,9.62
2023-04-17T01:51:10.172Z,9.44
2023-04-17T01:53:40.204Z,9.43
2023-04-17T01:56:07.815Z,9.49
2023-04-17T01:58:35.549Z,9.41
2023-04-17T02:01:02.963Z,9.49
2023-04-17T02:03:31.492Z,9.57
2023-04-17T02:05:59.134Z,9.54
2023-04-17T02:08:27.212Z,9.57
2023-04-17T02:10:54.616Z,9.59
2023-04-17T02:13:22.093Z,9.63
2023-04-17T02:15:49.574Z,9.61
2023-04-17T02:18:17.152Z,9.58
2023-04-17T02:20:44.589Z,9.58
2023-04-17T02:23:12.320Z,9.53
2023-04-17T02:25:39.733Z,9.39
2023-04-17T02:28:07.248Z,9.41
2023-04-17T02:30:35.179Z,9.49
2023-04-17T02:33:02.716Z,9.56
2023-04-17T02:35:32.489Z,9.54
2023-04-17T02:38:00.230Z,9.25
2023-04-17T02:40:28.324Z,9.13
2023-04-17T02:43:01.725Z,9.04
2023-04-17T02:45:30.722Z,9.22
2023-04-17T02:47:58.315Z,9.11
2023-04-17T02:50:25.849Z,9.23
2023-04-17T02:53:07.688Z,9.07
2023-04-17T02:55:36.056Z,9.20
2023-04-17T02:58:03.474Z,9.26
2023-04-17T03:00:30.860Z,9.38
2023-04-17T03:02:59.744Z,9.35
2023-04-17T03:05:30.633Z,9.11
2023-04-17T03:08:00.360Z,8.95
2023-04-17T03:10:32.257Z,9.04
2023-04-17T03:12:59.677Z,9.04
2023-04-17T03:15:27.220Z,9.20
2023-04-17T03:17:54.681Z,9.12
2023-04-17T03:20:22.200Z,9.21
2023-04-17T03:22:49.669Z,9.15
2023-04-17T03:25:17.108Z,9.13
2023-04-17T03:27:49.776Z,9.09
2023-04-17T03:30:19.404Z,8.82
2023-04-17T03:32:49.701Z,8.74
2023-04-17T03:35:17.136Z,8.68
2023-04-17T03:37:44.679Z,8.60
2023-04-17T03:40:13.849Z,8.83
2023-04-17T03:42:44.274Z,8.84
2023-04-17T03:45:12.138Z,8.98
2023-04-17T03:47:39.628Z,9.04
2023-04-17T03:50:08.067Z,9.20
2023-04-17T03:52:40.423Z,9.13
2023-04-17T03:55:08.453Z,9.13
2023-04-17T03:57:35.994Z,8.99
2023-04-17T04:00:07.754Z,8.96
2023-04-17T04:02:46.711Z,8.91
2023-04-17T04:05:18.110Z,8.94
2023-04-17T04:07:45.777Z,8.78
2023-04-17T04:10:18.933Z,8.63
2023-04-17T04:12:46.299Z,8.66
2023-04-17T04:15:15.075Z,8.57
2023-04-17T04:17:44.353Z,8.76
2023-04-17T04:20:12.180Z,8.64
2023-04-17T04:22:41.653Z,8.56
2023-04-17T04:25:09.318Z,8.45
2023-04-17T04:27:49.716Z,8.46
2023-04-17T04:30:25.470Z,8.69
2023-04-17T04:32:57.112Z,8.88
2023-04-17T04:35:30.317Z,8.70
2023-04-17T04:38:02.269Z,8.81
2023-04-17T04:40:38.241Z,8.66
2023-04-17T04:43:07.638Z,8.76
2023-04-17T04:45:44.428Z,8.74
2023-04-17T04:48:11.782Z,8.79
2023-04-17T04:50:39.239Z,8.75
2023-04-17T04:53:06.724Z,8.87
2023-04-17T04:55:45.826Z,8.76
2023-04-17T04:58:13.436Z,8.75
2023-04-17T05:00:41.306Z,8.77
2023-04-17T05:03:12.994Z,8.75
2023-04-17T05:05:41.881Z,9.00
2023-04-17T05:08:12.165Z,8.88
2023-04-17T05:10:40.077Z,8.97
2023-04-17T05:13:08.553Z,8.97
2023-04-17T05:15:36.016Z,9.00
2023-04-17T05:18:03.958Z,9.16
2023-04-17T05:20:34.067Z,9.28
2023-04-17T05:23:01.661Z,9.37
2023-04-17T05:25:29.216Z,9.49
2023-04-17T05:27:58.378Z,9.52
2023-04-17T05:30:25.927Z,9.57
2023-04-17T05:33:04.869Z,9.61
2023-04-17T05:35:46.539Z,9.62
2023-04-17T05:38:14.226Z,9.60
2023-04-17T05:40:41.637Z,9.78
2023-04-17T05:43:10.756Z,9.75
2023-04-17T05:45:41.353Z,9.69
2023-04-17T05:48:10.140Z,9.82
2023-04-17T05:50:37.781Z,9.87
2023-04-17T05:53:06.779Z,9.84
2023-04-17T05:55:39.622Z,9.87
2023-04-17T06:00:45.212Z,9.69
2023-04-17T06:03:18.328Z,9.78
2023-04-17T06:05:47.234Z,9.90
2023-04-17T06:08:14.731Z,9.97
2023-04-17T06:10:42.241Z,9.96
2023-04-17T06:13:09.907Z,10.01
2023-04-17T06:15:37.362Z,10.11
2023-04-17T06:18:05.106Z,10.02
2023-04-17T06:20:32.532Z,10.04
2023-04-17T06:23:03.228Z,10.08
2023-04-17T06:25:30.625Z,10.20
2023-04-17T06:27:58.161Z,10.22
2023-04-17T06:30:25.600Z,10.19
2023-04-17T06:32:55.144Z,10.10
2023-04-17T06:35:22.720Z,10.27
2023-04-17T06:37:55.613Z,10.45
2023-04-17T06:40:23.404Z,10.58
2023-04-17T06:42:52.160Z,10.76
2023-04-17T06:45:21.594Z,10.66
2023-04-17T06:47:49.021Z,10.68
2023-04-17T06:50:20.674Z,10.91
2023-04-17T06:52:48.084Z,10.99
2023-04-17T06:55:15.645Z,11.11
2023-04-17T06:57:43.109Z,11.22
2023-04-17T07:00:11.295Z,11.26
2023-04-17T07:02:38.806Z,11.38
2023-04-17T07:05:07.245Z,11.44
2023-04-17T07:07:36.066Z,11.46
2023-04-17T07:10:04.339Z,11.51
2023-04-17T07:12:31.921Z,11.56
2023-04-17T07:14:59.642Z,11.62
2023-04-17T07:17:27.555Z,11.74
2023-04-17T07:19:55.140Z,11.59
2023-04-17T07:22:23.928Z,11.77
2023-04-17T07:24:52.240Z,11.83
2023-04-17T07:27:19.634Z,11.91
2023-04-17T07:29:52.890Z,11.98
2023-04-17T07:32:21.724Z,12.07
2023-04-17T07:34:49.123Z,12.11
2023-04-17T07:37:16.700Z,12.25
2023-04-17T07:39:44.902Z,12.28
2023-04-17T07:42:12.263Z,12.30
2023-04-17T07:44:39.576Z,12.47
2023-04-17T07:47:07.069Z,12.49
2023-04-17T07:49:35.229Z,12.60
2023-04-17T07:52:02.775Z,12.75
2023-04-17T07:54:31.325Z,12.84
2023-04-17T07:57:02.993Z,12.85
2023-04-17T07:59:30.714Z,12.89
2023-04-17T08:01:58.391Z,13.25
2023-04-17T08:04:26.342Z,13.55
2023-04-17T08:06:53.842Z,13.60
2023-04-17T08:09:22.234Z,13.60
2023-04-17T08:11:57.051Z,13.95
2023-04-17T08:14:25.699Z,14.60
2023-04-17T08:16:53.275Z,14.59
2023-04-17T08:19:20.710Z,14.59
2023-04-17T08:21:48.838Z,14.60
2023-04-17T08:24:19.523Z,14.73
2023-04-17T08:26:47.972Z,14.82
2023-04-17T08:29:15.860Z,14.72
2023-04-17T08:31:43.551Z,14.78
2023-04-17T08:34:14.788Z,14.82
2023-04-17T08:36:43.317Z,14.82
2023-04-17T08:39:12.598Z,14.79
2023-04-17T08:41:49.184Z,14.77
2023-04-17T08:44:20.842Z,14.94
2023-04-17T08:46:48.936Z,14.83
2023-04-17T08:49:16.446Z,14.94
2023-04-17T08:51:43.961Z,15.03
2023-04-17T08:54:11.386Z,15.04
2023-04-17T08:56:38.788Z,14.82
2023-04-17T08:59:06.269Z,14.83
2023-04-17T09:01:34.943Z,14.78
2023-04-17T09:04:02.711Z,14.92
2023-04-17T09:06:49.515Z,14.94
2023-04-17T09:09:17.503Z,14.76
2023-04-17T09:11:44.859Z,14.80
2023-04-17T09:14:30.741Z,14.79
2023-04-17T09:16:58.152Z,14.67
2023-04-17T09:19:25.938Z,14.62
2023-04-17T09:21:54.645Z,14.74
2023-04-17T09:24:35.541Z,14.77
2023-04-17T09:27:23.601Z,14.78
2023-04-17T09:30:05.070Z,14.65
2023-04-17T09:32:34.357Z,14.76
2023-04-17T09:35:04.047Z,14.83
2023-04-17T09:37:52.472Z,14.84
2023-04-17T09:40:22.189Z,14.86
2023-04-17T09:43:01.307Z,14.90
2023-04-17T09:45:35.773Z,14.94
2023-04-17T09:48:10.862Z,15.01
2023-04-17T09:50:39.487Z,15.03
2023-04-17T09:53:08.321Z,15.26
2023-04-17T09:55:38.067Z,15.33
2023-04-17T09:58:07.558Z,15.55
2023-04-17T10:00:36.622Z,15.68
2023-04-17T10:03:05.068Z,15.56
2023-04-17T10:05:32.907Z,15.79
2023-04-17T10:08:01.533Z,15.99
2023-04-17T10:10:32.431Z,16.19
2023-04-17T10:13:02.530Z,16.41
2023-04-17T10:15:30.762Z,16.69
2023-04-17T10:18:23.447Z,16.87
2023-04-17T10:20:53.669Z,16.95
2023-04-17T10:23:35.099Z,16.64
2023-04-17T10:26:30.084Z,16.90
2023-04-17T10:28:57.981Z,16.99
2023-04-17T10:32:02.919Z,17.14
2023-04-17T10:34:37.890Z,17.31
2023-04-17T10:37:05.414Z,17.36
2023-04-17T10:39:53.258Z,17.49
2023-04-17T10:42:22.279Z,17.37
2023-04-17T10:44:52.290Z,17.45
2023-04-17T10:47:21.392Z,17.57
2023-04-17T10:49:54.649Z,17.52
2023-04-17T10:52:34.722Z,17.45
2023-04-17T10:55:06.620Z,17.51
2023-04-17T10:57:58.258Z,17.49
2023-04-17T11:00:32.769Z,17.35
2023-04-17T11:03:02.424Z,17.65
2023-04-17T11:05:34.002Z,17.69
2023-04-17T11:08:01.971Z,17.94
2023-04-17T11:10:36.459Z,17.80
2023-04-17T11:13:03.952Z,17.91
2023-04-17T11:15:34.299Z,18.16
2023-04-17T11:18:03.320Z,18.19
2023-04-17T11:20:32.653Z,18.66
2023-04-17T11:23:04.635Z,18.79
2023-04-17T11:25:34.419Z,18.89
2023-04-17T11:28:05.312Z,18.96
2023-04-17T11:30:35.620Z,18.90
2023-04-17T11:33:05.585Z,18.82
2023-04-17T11:35:35.555Z,18.95
2023-04-17T11:38:23.171Z,18.95
2023-04-17T11:40:55.406Z,19.04
2023-04-17T11:43:23.828Z,18.93
2023-04-17T11:45:53.601Z,19.02
2023-04-17T11:48:24.484Z,18.89
2023-04-17T11:50:57.353Z,18.75
2023-04-17T11:53:25.153Z,18.60
2023-04-17T11:56:11.254Z,18.77
2023-04-17T11:58:49.530Z,18.71
2023-04-17T12:01:18.411Z,18.68
2023-04-17T12:03:48.007Z,18.68
2023-04-17T12:06:16.386Z,18.59
2023-04-17T12:08:47.246Z,18.54
2023-04-17T12:11:18.124Z,18.58
2023-04-17T12:13:45.531Z,18.52
2023-04-17T12:16:13.092Z,18.68
2023-04-17T12:18:40.551Z,18.55
2023-04-17T12:21:07.957Z,18.45
2023-04-17T12:23:35.440Z,18.46
2023-04-17T12:26:03.160Z,18.44
2023-04-17T12:28:31.189Z,18.58
2023-04-17T12:30:58.692Z,18.48
2023-04-17T12:33:26.342Z,18.29
2023-04-17T12:35:54.267Z,18.43
2023-04-17T12:38:23.264Z,18.46
2023-04-17T12:40:50.632Z,18.58
2023-04-17T12:43:18.200Z,18.63
2023-04-17T12:45:46.275Z,18.46
2023-04-17T12:48:14.853Z,18.44
2023-04-17T12:50:43.656Z,18.55
2023-04-17T12:53:13.624Z,18.42
2023-04-17T12:55:43.693Z,18.57
2023-04-17T12:58:13.137Z,18.45
2023-04-17T13:00:44.336Z,18.47
2023-04-17T13:03:12.405Z,18.36
2023-04-17T13:05:40.088Z,18.09
2023-04-17T13:08:33.144Z,18.07
2023-04-17T13:11:03.720Z,18.18
2023-04-17T13:13:31.135Z,17.99
2023-04-17T13:15:58.836Z,17.97
2023-04-17T13:18:26.493Z,18.01
2023-04-17T13:20:53.860Z,18.13
2023-04-17T13:23:21.254Z,18.12
2023-04-17T13:25:48.655Z,17.93
2023-04-17T13:28:16.013Z,17.94
2023-04-17T13:30:43.446Z,18.05
2023-04-17T13:33:10.980Z,18.28
2023-04-17T13:35:38.431Z,18.12
2023-04-17T13:38:06.473Z,18.17
2023-04-17T13:40:33.842Z,18.14
2023-04-17T13:43:01.517Z,18.28
2023-04-17T13:45:29.947Z,18.24
2023-04-17T13:47:57.433Z,18.19
2023-04-17T13:50:25.007Z,18.14
2023-04-17T13:52:52.500Z,18.10
2023-04-17T13:55:19.964Z,18.18
2023-04-17T13:57:47.413Z,18.01
2023-04-17T14:00:15.278Z,18.05
2023-04-17T14:02:43.060Z,18.00
2023-04-17T14:05:10.590Z,17.89
2023-04-17T14:07:38.341Z,18.01
2023-04-17T14:10:06.720Z,17.95
2023-04-17T14:12:34.172Z,17.81
2023-04-17T14:15:01.594Z,17.75
2023-04-17T14:17:29.171Z,17.90
2023-04-17T14:19:56.889Z,17.80
2023-04-17T14:22:24.354Z,17.82
2023-04-17T14:24:51.806Z,17.77
2023-04-17T14:27:19.165Z,17.79
2023-04-17T14:29:46.599Z,17.74
2023-04-17T14:32:14.013Z,17.65
2023-04-17T14:34:41.427Z,17.64
2023-04-17T14:37:08.921Z,17.62
2023-04-17T14:39:38.357Z,17.66
2023-04-17T14:42:05.817Z,17.60
2023-04-17T14:44:33.262Z,17.59
2023-04-17T14:47:00.765Z,17.44
2023-04-17T14:49:29.616Z,17.52
2023-04-17T14:51:56.981Z,17.65
2023-04-17T14:54:24.433Z,17.60
2023-04-17T14:56:51.910Z,17.59
2023-04-17T14:59:19.459Z,17.54
2023-04-17T15:01:46.985Z,17.41
2023-04-17T15:04:15.079Z,17.52
2023-04-17T15:06:43.084Z,17.56
2023-04-17T15:09:10.670Z,17.50
2023-04-17T15:11:38.176Z,17.61
2023-04-17T15:14:05.558Z,17.55
2023-04-17T15:16:32.998Z,17.55
2023-04-17T15:19:00.422Z,17.53
2023-04-17T15:21:27.708Z,17.59
2023-04-17T15:23:58.151Z,17.57
2023-04-17T15:26:25.776Z,17.57
2023-04-17T15:28:53.147Z,17.58
2023-04-17T15:31:20.674Z,17.55
2023-04-17T15:33:48.071Z,17.54
2023-04-17T15:36:15.612Z,17.56
2023-04-17T15:38:44.035Z,17.49
2023-04-17T15:41:11.433Z,17.48
2023-04-17T15:43:39.128Z,17.53
2023-04-17T15:46:06.521Z,17.59
2023-04-17T15:48:33.815Z,17.59
2023-04-17T15:51:02.984Z,17.60
2023-04-17T15:53:30.314Z,17.57
2023-04-17T15:55:57.644Z,17.56
2023-04-17T15:58:25.012Z,17.55
2023-04-17T16:00:52.304Z,17.47
2023-04-17T16:03:19.762Z,17.46
2023-04-17T16:05:47.242Z,17.49
2023-04-17T16:08:15.291Z,17.49
2023-04-17T16:10:42.690Z,17.37
2023-04-17T16:13:10.060Z,17.35
2023-04-17T16:15:37.458Z,17.40
2023-04-17T16:18:05.124Z,17.31
2023-04-17T16:20:32.574Z,17.33
2023-04-17T16:22:59.867Z,17.30
2023-04-17T16:25:27.246Z,17.17
2023-04-17T16:27:54.621Z,17.19
2023-04-17T16:30:22.041Z,17.27
2023-04-17T16:32:50.272Z,17.24
2023-04-17T16:35:17.710Z,17.24
2023-04-17T16:37:45.158Z,17.20
2023-04-17T16:40:13.030Z,17.07
2023-04-17T16:42:40.703Z,17.10
2023-04-17T16:45:08.352Z,17.11
2023-04-17T16:47:35.829Z,17.04
2023-04-17T16:50:03.699Z,17.04
2023-04-17T16:52:30.994Z,16.92
2023-04-17T16:54:58.738Z,17.03
2023-04-17T16:57:31.041Z,16.99
2023-04-17T16:59:59.079Z,16.98
2023-04-17T17:02:26.545Z,16.86
2023-04-17T17:04:58.594Z,16.80
2023-04-17T17:07:27.159Z,16.87
2023-04-17T17:09:54.551Z,16.86
2023-04-17T17:12:22.030Z,16.79
2023-04-17T17:14:49.335Z,16.84
2023-04-17T17:17:16.656Z,16.77
2023-04-17T17:19:43.957Z,16.78
2023-04-17T17:22:11.310Z,16.75
2023-04-17T17:24:38.700Z,16.62
2023-04-17T17:27:06.152Z,16.58
2023-04-17T17:29:33.544Z,16.54
2023-04-17T17:32:00.922Z,16.50
2023-04-17T17:34:28.282Z,16.44
2023-04-17T17:36:55.725Z,16.42
2023-04-17T17:39:23.063Z,16.42
2023-04-17T17:41:50.584Z,16.39
2023-04-17T17:44:18.141Z,16.41
2023-04-17T17:46:45.589Z,16.31
2023-04-17T17:49:12.968Z,16.23
2023-04-17T17:51:40.418Z,16.11
2023-04-17T17:54:08.051Z,16.12
2023-04-17T17:56:35.499Z,16.02
2023-04-17T17:59:02.852Z,15.95
2023-04-17T18:01:30.289Z,15.93
2023-04-17T18:03:58.245Z,15.86
2023-04-17T18:06:50.608Z,15.83
2023-04-17T18:09:18.044Z,15.74
2023-04-17T18:11:47.553Z,15.76
2023-04-17T18:14:14.967Z,15.70
2023-04-17T18:16:43.102Z,15.62
2023-04-17T18:19:10.606Z,15.55
2023-04-17T18:21:38.549Z,15.50
2023-04-17T18:24:06.380Z,15.58
2023-04-17T18:26:36.486Z,15.50
2023-04-17T18:29:03.806Z,15.54
2023-04-17T18:31:31.317Z,15.48
2023-04-17T18:34:02.478Z,15.42
2023-04-17T18:36:30.814Z,15.28
2023-04-17T18:38:58.793Z,15.30
2023-04-17T18:41:27.033Z,15.30
2023-04-17T18:43:54.425Z,15.10
2023-04-17T18:46:23.819Z,15.10
2023-04-17T18:48:51.311Z,15.15
2023-04-17T18:51:18.734Z,15.16
2023-04-17T18:53:46.584Z,15.13
2023-04-17T18:56:15.149Z,15.07
2023-04-17T18:58:43.346Z,15.07
2023-04-17T19:01:11.608Z,15.09
2023-04-17T19:03:40.437Z,14.96
2023-04-17T19:06:08.234Z,14.89
2023-04-17T19:08:38.193Z,14.81
2023-04-17T19:11:07.249Z,14.74
2023-04-17T19:13:34.866Z,14.72
2023-04-17T19:16:02.288Z,14.78
2023-04-17T19:18:29.790Z,14.74
2023-04-17T19:20:57.226Z,14.83
2023-04-17T19:23:26.010Z,14.76
2023-04-17T19:25:58.767Z,14.77
2023-04-17T19:28:28.366Z,14.64
2023-04-17T19:30:58.630Z,14.62
2023-04-17T19:33:27.287Z,14.65
2023-04-17T19:35:54.917Z,14.59
2023-04-17T19:38:26.132Z,14.45
2023-04-17T19:41:19.372Z,14.53
2023-04-17T19:43:53.696Z,14.49
2023-04-17T19:46:25.219Z,14.44
2023-04-17T19:48:53.023Z,14.35
2023-04-17T19:51:20.451Z,14.42
2023-04-17T19:53:49.343Z,14.30
2023-04-17T19:56:16.971Z,14.39
2023-04-17T19:58:44.441Z,14.22
2023-04-17T20:01:12.040Z,14.18
2023-04-17T20:03:42.971Z,14.13
2023-04-17T20:06:10.750Z,14.09
2023-04-17T20:08:38.250Z,14.05
2023-04-17T20:11:06.494Z,13.93
2023-04-17T20:13:35.035Z,14.00
2023-04-17T20:16:04.024Z,14.06
2023-04-17T20:18:34.716Z,14.02
2023-04-17T20:21:02.557Z,13.91
2023-04-17T20:23:30.322Z,13.80
2023-04-17T20:25:58.520Z,13.65
2023-04-17T20:28:29.032Z,13.53
2023-04-17T20:30:57.847Z,13.43
2023-04-17T20:33:25.860Z,13.46
2023-04-17T20:35:53.794Z,13.37
2023-04-17T20:38:21.329Z,13.43
2023-04-17T20:40:48.679Z,13.29
2023-04-17T20:43:16.954Z,13.33
2023-04-17T20:45:44.707Z,13.23
2023-04-17T20:48:12.190Z,13.35
2023-04-17T20:50:39.621Z,13.26
2023-04-17T20:53:06.940Z,13.24
2023-04-17T20:55:36.923Z,13.24
2023-04-17T20:58:04.283Z,13.19
2023-04-17T21:00:31.738Z,12.95
2023-04-17T21:02:59.062Z,13.01
2023-04-17T21:05:27.244Z,13.08
2023-04-17T21:07:57.925Z,12.89
2023-04-17T21:10:25.661Z,12.98
2023-04-17T21:12:53.349Z,12.92
2023-04-17T21:15:21.079Z,12.97
2023-04-17T21:17:48.587Z,13.02
2023-04-17T21:20:16.116Z,13.03
2023-04-17T21:22:43.509Z,12.93
2023-04-17T21:25:11.429Z,12.86
2023-04-17T21:27:39.675Z,12.98
2023-04-17T21:30:08.341Z,13.01
2023-04-17T21:32:35.864Z,13.07
2023-04-17T21:35:03.468Z,13.04
2023-04-17T21:37:30.995Z,12.81
2023-04-17T21:39:58.560Z,12.78
2023-04-17T21:42:26.194Z,12.85
2023-04-17T21:44:53.691Z,12.84
2023-04-17T21:47:21.246Z,12.73
2023-04-17T21:49:49.327Z,12.75
2023-04-17T21:52:17.063Z,12.76
2023-04-17T21:54:44.596Z,12.66
2023-04-17T21:58:08.319Z,12.71
2023-04-17T22:00:54.717Z,12.73
2023-04-17T22:03:23.061Z,12.77
2023-04-17T22:05:53.320Z,12.68
2023-04-17T22:08:21.025Z,12.63
2023-04-17T22:10:48.597Z,12.70
2023-04-17T22:13:16.160Z,12.67
2023-04-17T22:15:44.575Z,12.63
2023-04-17T22:18:12.154Z,12.60
2023-04-17T22:20:39.695Z,12.59
2023-04-17T22:23:07.399Z,12.50
2023-04-17T22:25:34.950Z,12.66
2023-04-17T22:28:02.510Z,12.55
2023-04-17T22:30:30.084Z,12.38
2023-04-17T22:32:57.713Z,12.49
2023-04-17T22:35:25.435Z,12.70
2023-04-17T22:37:52.976Z,12.66
2023-04-17T22:40:20.689Z,12.43
2023-04-17T22:42:50.540Z,12.34
2023-04-17T22:45:18.292Z,12.28
2023-04-17T22:47:45.897Z,12.38
2023-04-17T22:50:14.319Z,12.34
2023-04-17T22:52:41.976Z,12.49
2023-04-17T22:55:09.897Z,12.50
2023-04-17T22:57:37.525Z,12.53
2023-04-17T23:00:07.546Z,12.49
2023-04-17T23:02:35.987Z,12.51
2023-04-17T23:05:03.702Z,12.47
2023-04-17T23:07:31.522Z,12.50
2023-04-17T23:09:59.166Z,12.36
2023-04-17T23:12:26.776Z,12.40
2023-04-17T23:14:54.324Z,12.35
2023-04-17T23:17:21.823Z,12.23
2023-04-17T23:19:49.441Z,12.23
2023-04-17T23:22:17.078Z,12.06
2023-04-17T23:24:44.680Z,12.13
2023-04-17T23:27:12.240Z,12.17
2023-04-17T23:29:39.733Z,12.04
2023-04-17T23:32:07.679Z,11.89
2023-04-17T23:34:35.973Z,11.92
2023-04-17T23:37:03.722Z,11.85
2023-04-17T23:39:31.280Z,12.00
2023-04-17T23:42:00.542Z,11.99
2023-04-17T23:44:28.112Z,12.09
2023-04-17T23:46:56.075Z,12.19
2023-04-17T23:49:23.694Z,11.97
2023-04-17T23:51:51.205Z,11.94
2023-04-17T23:54:18.775Z,12.01
2023-04-17T23:56:46.360Z,12.03
2023-04-17T23:59:13.921Z,11.98
